createdAt,value
2023-10-01T00:00:04.376Z,0.00
2023-10-01T00:01:04.509Z,0.00
2023-10-01T00:02:04.483Z,0.00
2023-10-01T00:03:04.337Z,0.00
2023-10-01T00:04:04.400Z,0.00
2023-10-01T00:05:04.313Z,0.00
2023-10-01T00:06:04.298Z,0.00
2023-10-01T00:07:04.311Z,0.00
2023-10-01T00:08:04.296Z,0.00
2023-10-01T00:09:04.266Z,0.00
2023-10-01T00:10:04.330Z,0.00
2023-10-01T00:11:04.276Z,0.00
2023-10-01T00:12:04.231Z,0.00
2023-10-01T00:13:04.290Z,0.00
2023-10-01T00:14:06.362Z,0.00
2023-10-01T00:15:04.205Z,0.00
2023-10-01T00:16:04.244Z,0.00
2023-10-01T00:17:04.217Z,0.00
2023-10-01T00:18:04.193Z,0.00
2023-10-01T00:19:04.224Z,0.00
2023-10-01T00:20:04.144Z,0.00
2023-10-01T00:21:04.153Z,0.00
2023-10-01T00:22:04.161Z,0.00
2023-10-01T00:23:04.782Z,0.00
2023-10-01T00:24:04.113Z,0.00
2023-10-01T00:25:04.160Z,0.00
2023-10-01T00:26:04.207Z,0.00
2023-10-01T00:27:04.063Z,0.00
2023-10-01T00:28:04.091Z,0.00
2023-10-01T00:29:04.056Z,0.00
2023-10-01T00:30:04.041Z,0.00
2023-10-01T00:31:04.071Z,0.00
2023-10-01T00:32:04.051Z,0.00
2023-10-01T00:33:04.115Z,0.00
2023-10-01T00:34:04.052Z,0.00
2023-10-01T00:35:03.979Z,0.00
2023-10-01T00:36:03.972Z,0.00
2023-10-01T00:37:04.032Z,0.00
2023-10-01T00:38:03.952Z,0.00
2023-10-01T00:39:03.980Z,0.00
2023-10-01T00:40:03.983Z,0.00
2023-10-01T00:41:03.914Z,0.00
2023-10-01T00:42:03.945Z,0.00
2023-10-01T00:43:03.934Z,0.00
2023-10-01T00:44:03.907Z,0.00
2023-10-01T00:45:03.869Z,0.00
2023-10-01T00:46:03.951Z,0.00
2023-10-01T00:47:03.850Z,0.00
2023-10-01T00:48:03.879Z,0.00
2023-10-01T00:49:03.877Z,0.00
2023-10-01T00:50:03.839Z,0.00
2023-10-01T00:51:03.809Z,0.00
2023-10-01T00:52:03.846Z,0.00
2023-10-01T00:53:03.787Z,0.00
2023-10-01T00:54:03.807Z,0.00
2023-10-01T00:55:03.789Z,0.00
2023-10-01T00:56:03.781Z,0.00
2023-10-01T00:57:03.741Z,0.00
2023-10-01T00:58:03.838Z,0.00
2023-10-01T00:59:03.723Z,0.00
2023-10-01T01:00:03.718Z,0.00
2023-10-01T01:01:03.776Z,0.00
2023-10-01T01:02:03.733Z,0.00
2023-10-01T01:03:03.717Z,0.00
2023-10-01T01:04:03.755Z,0.00
2023-10-01T01:05:03.649Z,0.00
2023-10-01T01:06:03.658Z,0.00
2023-10-01T01:07:03.666Z,0.00
2023-10-01T01:08:03.622Z,0.00
2023-10-01T01:09:03.600Z,0.00
2023-10-01T01:10:03.598Z,0.00
2023-10-01T01:11:03.593Z,0.00
2023-10-01T01:12:03.592Z,0.00
2023-10-01T01:13:03.618Z,0.00
2023-10-01T01:14:03.540Z,0.00
2023-10-01T01:15:03.527Z,0.00
2023-10-01T01:16:03.614Z,0.00
2023-10-01T01:17:03.566Z,0.00
2023-10-01T01:18:03.531Z,0.00
2023-10-01T01:19:03.509Z,0.00
2023-10-01T01:20:03.477Z,0.00
2023-10-01T01:21:03.460Z,0.00
2023-10-01T01:22:03.496Z,0.00
2023-10-01T01:23:03.438Z,0.00
2023-10-01T01:24:03.431Z,0.00
2023-10-01T01:25:03.456Z,0.00
2023-10-01T01:26:03.412Z,0.00
2023-10-01T01:27:03.390Z,0.00
2023-10-01T01:28:03.473Z,0.00
2023-10-01T01:29:03.384Z,0.00
2023-10-01T01:30:03.367Z,0.00
2023-10-01T01:31:03.784Z,0.00
2023-10-01T01:32:03.395Z,0.00
2023-10-01T01:33:03.384Z,0.00
2023-10-01T01:34:03.364Z,0.00
2023-10-01T01:35:03.303Z,0.00
2023-10-01T01:36:03.300Z,0.00
2023-10-01T01:37:03.322Z,0.00
2023-10-01T01:38:03.281Z,0.00
2023-10-01T01:39:03.303Z,0.00
2023-10-01T01:40:03.294Z,0.00
2023-10-01T01:41:03.233Z,0.00
2023-10-01T01:42:03.226Z,0.00
2023-10-01T01:43:03.234Z,0.00
2023-10-01T01:44:03.211Z,0.00
2023-10-01T01:45:03.216Z,0.00
2023-10-01T01:46:03.251Z,0.00
2023-10-01T01:47:03.224Z,0.00
2023-10-01T01:48:03.178Z,0.00
2023-10-01T01:49:03.201Z,0.00
2023-10-01T01:50:03.146Z,0.00
2023-10-01T01:51:03.157Z,0.00
2023-10-01T01:52:03.122Z,0.00
2023-10-01T01:53:03.100Z,0.00
2023-10-01T01:54:03.089Z,0.00
2023-10-01T01:55:03.107Z,0.00
2023-10-01T01:56:03.087Z,0.00
2023-10-01T01:57:03.090Z,0.00
2023-10-01T01:58:03.064Z,0.00
2023-10-01T01:59:03.036Z,0.00
2023-10-01T02:00:03.049Z,0.00
2023-10-01T02:01:03.189Z,0.00
2023-10-01T02:02:03.268Z,0.00
2023-10-01T02:03:03.063Z,0.00
2023-10-01T02:04:03.024Z,0.00
2023-10-01T02:05:02.992Z,0.00
2023-10-01T02:06:02.960Z,0.00
2023-10-01T02:07:02.964Z,0.00
2023-10-01T02:08:02.974Z,0.00
2023-10-01T02:09:03.048Z,0.00
2023-10-01T02:10:02.934Z,0.00
2023-10-01T02:11:02.899Z,0.00
2023-10-01T02:12:02.907Z,0.00
2023-10-01T02:13:02.893Z,0.00
2023-10-01T02:14:02.906Z,0.00
2023-10-01T02:15:02.865Z,0.00
2023-10-01T02:16:02.859Z,0.00
2023-10-01T02:17:02.925Z,0.00
2023-10-01T02:18:02.869Z,0.00
2023-10-01T02:19:03.171Z,0.00
2023-10-01T02:20:02.831Z,0.00
2023-10-01T02:21:02.795Z,0.00
2023-10-01T02:22:02.817Z,0.00
2023-10-01T02:23:02.771Z,0.00
2023-10-01T02:24:02.763Z,0.00
2023-10-01T02:25:02.779Z,0.00
2023-10-01T02:26:02.777Z,0.00
2023-10-01T02:27:02.726Z,0.00
2023-10-01T02:28:02.789Z,0.00
2023-10-01T02:29:02.704Z,0.00
2023-10-01T02:30:02.691Z,0.00
2023-10-01T02:31:02.715Z,0.00
2023-10-01T02:32:02.744Z,0.00
2023-10-01T02:33:02.682Z,0.00
2023-10-01T02:34:02.676Z,0.00
2023-10-01T02:35:02.632Z,0.00
2023-10-01T02:36:02.625Z,0.00
2023-10-01T02:37:02.675Z,0.00
2023-10-01T02:38:02.647Z,0.00
2023-10-01T02:39:02.589Z,0.00
2023-10-01T02:40:02.632Z,0.00
2023-10-01T02:41:04.919Z,0.00
2023-10-01T02:42:02.559Z,0.00
2023-10-01T02:43:02.573Z,0.00
2023-10-01T02:44:02.555Z,0.00
2023-10-01T02:45:02.529Z,0.00
2023-10-01T02:46:02.562Z,0.00
2023-10-01T02:47:02.581Z,0.00
2023-10-01T02:48:02.524Z,0.00
2023-10-01T02:49:02.782Z,0.00
2023-10-01T02:50:02.474Z,0.00
2023-10-01T02:51:02.468Z,0.00
2023-10-01T02:52:02.470Z,0.00
2023-10-01T02:53:02.442Z,0.00
2023-10-01T02:54:02.507Z,0.00
2023-10-01T02:55:02.481Z,0.00
2023-10-01T02:56:02.420Z,0.00
2023-10-01T02:57:02.397Z,0.00
2023-10-01T02:58:02.418Z,0.00
2023-10-01T02:59:02.375Z,0.00
2023-10-01T03:00:02.382Z,0.00
2023-10-01T03:01:02.422Z,0.00
2023-10-01T03:02:02.339Z,0.00
2023-10-01T03:03:02.504Z,0.00
2023-10-01T03:04:02.418Z,0.00
2023-10-01T03:05:02.323Z,0.00
2023-10-01T03:06:02.296Z,0.00
2023-10-01T03:07:02.327Z,0.00
2023-10-01T03:08:02.276Z,0.00
2023-10-01T03:09:02.512Z,0.00
2023-10-01T03:10:02.298Z,0.00
2023-10-01T03:11:02.295Z,0.00
2023-10-01T03:12:02.231Z,0.00
2023-10-01T03:13:02.271Z,0.00
2023-10-01T03:14:02.230Z,0.00
2023-10-01T03:15:02.588Z,0.00
2023-10-01T03:16:02.222Z,0.00
2023-10-01T03:17:02.195Z,0.00
2023-10-01T03:18:02.213Z,0.00
2023-10-01T03:19:02.330Z,0.00
2023-10-01T03:20:02.138Z,0.00
2023-10-01T03:21:02.123Z,0.00
2023-10-01T03:22:02.130Z,0.00
2023-10-01T03:23:02.113Z,0.00
2023-10-01T03:24:02.131Z,0.00
2023-10-01T03:25:02.130Z,0.00
2023-10-01T03:26:02.347Z,0.00
2023-10-01T03:27:02.058Z,0.00
2023-10-01T03:28:02.072Z,0.00
2023-10-01T03:29:02.221Z,0.00
2023-10-01T03:30:02.541Z,0.00
2023-10-01T03:31:02.146Z,0.00
2023-10-01T03:32:02.001Z,0.00
2023-10-01T03:33:02.009Z,0.00
2023-10-01T03:34:02.014Z,0.00
2023-10-01T03:35:01.964Z,0.00
2023-10-01T03:36:01.978Z,0.00
2023-10-01T03:37:02.061Z,0.00
2023-10-01T03:38:01.958Z,0.00
2023-10-01T03:39:02.205Z,0.00
2023-10-01T03:40:01.972Z,0.00
2023-10-01T03:41:01.898Z,0.00
2023-10-01T03:42:01.910Z,0.00
2023-10-01T03:43:01.902Z,0.00
2023-10-01T03:44:01.861Z,0.00
2023-10-01T03:45:01.852Z,0.00
2023-10-01T03:46:01.866Z,0.00
2023-10-01T03:48:01.878Z,0.00
2023-10-01T03:49:02.497Z,0.00
2023-10-01T03:50:01.802Z,0.00
2023-10-01T03:51:01.813Z,0.00
2023-10-01T03:52:01.828Z,0.00
2023-10-01T03:53:01.761Z,0.00
2023-10-01T03:54:01.755Z,0.00
2023-10-01T03:55:01.929Z,0.00
2023-10-01T03:56:01.757Z,0.00
2023-10-01T03:57:01.719Z,0.00
2023-10-01T03:58:01.813Z,0.00
2023-10-01T03:59:01.844Z,0.00
2023-10-01T04:00:01.689Z,0.00
2023-10-01T04:01:01.723Z,0.00
2023-10-01T04:02:01.740Z,0.00
2023-10-01T04:03:01.724Z,0.00
2023-10-01T04:04:01.773Z,0.00
2023-10-01T04:05:01.662Z,0.00
2023-10-01T04:06:01.615Z,0.00
2023-10-01T04:07:01.755Z,0.00
2023-10-01T04:08:01.605Z,0.00
2023-10-01T04:09:01.637Z,0.00
2023-10-01T04:10:01.601Z,0.00
2023-10-01T04:11:01.569Z,0.00
2023-10-01T04:12:01.570Z,0.00
2023-10-01T04:13:01.560Z,0.00
2023-10-01T04:14:01.540Z,0.00
2023-10-01T04:15:01.676Z,0.00
2023-10-01T04:16:01.653Z,0.00
2023-10-01T04:17:01.600Z,0.00
2023-10-01T04:18:01.613Z,0.00
2023-10-01T04:19:01.910Z,0.00
2023-10-01T04:20:01.684Z,0.00
2023-10-01T04:21:01.633Z,0.00
2023-10-01T04:22:01.632Z,0.00
2023-10-01T04:23:01.546Z,0.00
2023-10-01T04:24:01.424Z,0.00
2023-10-01T04:25:01.419Z,0.00
2023-10-01T04:26:01.401Z,0.00
2023-10-01T04:27:01.410Z,0.00
2023-10-01T04:28:01.475Z,0.00
2023-10-01T04:29:01.598Z,0.00
2023-10-01T04:30:01.410Z,0.00
2023-10-01T04:31:01.465Z,0.00
2023-10-01T04:32:01.326Z,0.00
2023-10-01T04:33:01.360Z,0.00
2023-10-01T04:34:01.366Z,0.00
2023-10-01T04:35:01.297Z,0.00
2023-10-01T04:36:01.282Z,0.00
2023-10-01T04:37:01.345Z,0.00
2023-10-01T04:38:01.261Z,0.00
2023-10-01T04:39:01.572Z,0.00
2023-10-01T04:40:01.284Z,0.00
2023-10-01T04:41:01.231Z,0.00
2023-10-01T04:42:01.361Z,0.00
2023-10-01T04:43:01.263Z,0.00
2023-10-01T04:44:01.194Z,0.00
2023-10-01T04:45:01.179Z,0.00
2023-10-01T04:46:01.247Z,0.00
2023-10-01T04:47:01.210Z,0.00
2023-10-01T04:48:01.204Z,0.00
2023-10-01T04:49:01.306Z,0.00
2023-10-01T04:50:01.143Z,0.00
2023-10-01T04:51:01.129Z,0.00
2023-10-01T04:52:01.125Z,0.00
2023-10-01T04:53:01.093Z,0.00
2023-10-01T04:54:01.105Z,0.00
2023-10-01T04:55:12.996Z,0.00
2023-10-01T04:56:01.111Z,0.00
2023-10-01T04:57:01.048Z,0.00
2023-10-01T04:58:01.109Z,0.00
2023-10-01T04:59:01.287Z,0.00
2023-10-01T05:00:01.010Z,0.00
2023-10-01T05:01:01.041Z,0.00
2023-10-01T05:02:01.075Z,0.00
2023-10-01T05:03:01.004Z,0.00
2023-10-01T05:04:01.061Z,0.00
2023-10-01T05:05:01.004Z,4.00
2023-10-01T05:06:00.941Z,4.00
2023-10-01T05:07:01.060Z,0.00
2023-10-01T05:08:00.944Z,4.00
2023-10-01T05:09:01.072Z,8.00
2023-10-01T05:10:00.917Z,4.00
2023-10-01T05:11:00.896Z,8.00
2023-10-01T05:12:00.877Z,8.00
2023-10-01T05:13:06.974Z,8.00
2023-10-01T05:14:00.878Z,12.00
2023-10-01T05:15:01.214Z,12.00
2023-10-01T05:16:00.893Z,16.00
2023-10-01T05:17:00.922Z,16.00
2023-10-01T05:18:00.890Z,16.00
2023-10-01T05:19:01.007Z,24.00
2023-10-01T05:20:00.793Z,28.00
2023-10-01T05:21:00.783Z,28.00
2023-10-01T05:22:00.772Z,32.00
2023-10-01T05:23:00.808Z,40.00
2023-10-01T05:24:00.767Z,44.00
2023-10-01T05:25:00.772Z,52.00
2023-10-01T05:26:00.747Z,56.00
2023-10-01T05:27:00.718Z,64.00
2023-10-01T05:28:00.710Z,68.00
2023-10-01T05:29:01.029Z,76.00
2023-10-01T05:30:00.676Z,76.00
2023-10-01T05:31:00.691Z,76.00
2023-10-01T05:32:00.725Z,80.00
2023-10-01T05:33:00.657Z,88.00
2023-10-01T05:34:00.677Z,96.00
2023-10-01T05:35:00.646Z,104.00
2023-10-01T05:36:00.614Z,112.00
2023-10-01T05:37:00.619Z,124.00
2023-10-01T05:38:00.583Z,132.00
2023-10-01T05:39:00.851Z,144.00
2023-10-01T05:41:00.645Z,168.00
2023-10-01T05:42:00.560Z,188.00
2023-10-01T05:43:00.562Z,204.00
2023-10-01T05:44:00.528Z,216.00
2023-10-01T05:45:00.615Z,228.00
2023-10-01T05:46:00.571Z,228.00
2023-10-01T05:47:00.610Z,220.00
2023-10-01T05:48:00.532Z,224.00
2023-10-01T05:49:00.633Z,232.00
2023-10-01T05:50:00.482Z,244.00
2023-10-01T05:51:00.494Z,264.00
2023-10-01T05:52:00.544Z,280.00
2023-10-01T05:53:00.426Z,320.00
2023-10-01T05:54:00.411Z,380.00
2023-10-01T05:55:00.472Z,424.00
2023-10-01T05:56:00.394Z,432.00
2023-10-01T05:57:00.408Z,408.00
2023-10-01T05:58:00.379Z,376.00
2023-10-01T05:59:00.544Z,380.00
2023-10-01T06:00:00.367Z,396.00
2023-10-01T06:01:00.454Z,404.00
2023-10-01T06:02:00.443Z,400.00
2023-10-01T06:03:00.355Z,408.00
2023-10-01T06:04:00.366Z,404.00
2023-10-01T06:05:00.294Z,420.00
2023-10-01T06:06:00.510Z,448.00
2023-10-01T06:07:00.299Z,444.00
2023-10-01T06:08:00.268Z,444.00
2023-10-01T06:09:00.756Z,456.00
2023-10-01T06:10:00.387Z,492.00
2023-10-01T06:11:00.229Z,552.00
2023-10-01T06:12:00.233Z,596.00
2023-10-01T06:13:00.213Z,628.00
2023-10-01T06:14:00.209Z,788.00
2023-10-01T06:15:00.226Z,936.00
2023-10-01T06:16:00.273Z,1012.00
2023-10-01T06:17:00.240Z,1056.00
2023-10-01T06:18:00.224Z,1112.00
2023-10-01T06:19:01.399Z,1112.00
2023-10-01T06:20:00.227Z,1124.00
2023-10-01T06:21:00.150Z,1156.00
2023-10-01T06:22:00.119Z,1184.00
2023-10-01T06:23:00.116Z,1180.00
2023-10-01T06:24:00.311Z,1140.00
2023-10-01T06:25:00.121Z,1116.00
2023-10-01T06:26:00.053Z,1132.00
2023-10-01T06:27:00.043Z,1176.00
2023-10-01T06:28:00.108Z,1216.00
2023-10-01T06:29:00.175Z,1308.00
2023-10-01T06:30:00.045Z,1496.00
2023-10-01T06:31:00.114Z,1600.00
2023-10-01T06:32:00.078Z,1472.00
2023-10-01T06:33:00.007Z,1316.00
2023-10-01T06:33:59.977Z,1388.00
2023-10-01T06:34:59.979Z,1576.00
2023-10-01T06:35:59.949Z,1732.00
2023-10-01T06:37:00.525Z,1892.00
2023-10-01T06:37:59.933Z,1980.00
2023-10-01T06:39:00.035Z,1900.00
2023-10-01T06:39:59.932Z,1768.00
2023-10-01T06:40:59.925Z,1944.00
2023-10-01T06:41:59.872Z,2012.00
2023-10-01T06:42:59.939Z,2064.00
2023-10-01T06:43:59.852Z,1960.00
2023-10-01T06:44:59.880Z,1772.00
2023-10-01T06:45:59.856Z,1716.00
2023-10-01T06:46:59.853Z,1604.00
2023-10-01T06:47:59.856Z,1028.00
2023-10-01T06:49:00.572Z,736.00
2023-10-01T06:49:59.785Z,684.00
2023-10-01T06:50:59.808Z,668.00
2023-10-01T06:51:59.792Z,688.00
2023-10-01T06:52:59.758Z,732.00
2023-10-01T06:53:59.762Z,824.00
2023-10-01T06:55:00.013Z,1040.00
2023-10-01T06:55:59.718Z,1664.00
2023-10-01T06:56:59.729Z,2244.00
2023-10-01T06:57:59.709Z,2480.00
2023-10-01T06:58:59.844Z,2544.00
2023-10-01T06:59:59.674Z,2584.00
2023-10-01T07:00:59.708Z,2640.00
2023-10-01T07:01:59.704Z,2620.00
2023-10-01T07:02:59.743Z,2636.00
2023-10-01T07:03:59.741Z,2732.00
2023-10-01T07:05:59.608Z,2920.00
2023-10-01T07:06:59.619Z,2976.00
2023-10-01T07:07:59.590Z,3024.00
2023-10-01T07:08:59.770Z,3232.00
2023-10-01T07:09:59.609Z,3240.00
2023-10-01T07:10:59.573Z,3272.00
2023-10-01T07:11:59.553Z,3464.00
2023-10-01T07:13:00.379Z,3528.00
2023-10-01T07:13:59.530Z,3676.00
2023-10-01T07:14:59.504Z,3772.00
2023-10-01T07:15:59.587Z,3944.00
2023-10-01T07:16:59.529Z,3936.00
2023-10-01T07:17:59.730Z,3888.00
2023-10-01T07:18:59.751Z,3940.00
2023-10-01T07:19:59.448Z,4088.00
2023-10-01T07:20:59.459Z,4356.00
2023-10-01T07:21:59.505Z,4716.00
2023-10-01T07:22:59.434Z,4960.00
2023-10-01T07:23:59.412Z,5000.00
2023-10-01T07:24:59.439Z,4700.00
2023-10-01T07:25:59.413Z,4564.00
2023-10-01T07:26:59.382Z,4704.00
2023-10-01T07:27:59.393Z,5132.00
2023-10-01T07:29:00.180Z,5024.00
2023-10-01T07:29:59.384Z,4736.00
2023-10-01T07:30:59.384Z,4792.00
2023-10-01T07:31:59.373Z,4940.00
2023-10-01T07:32:59.375Z,5136.00
2023-10-01T07:33:59.344Z,5316.00
2023-10-01T07:34:59.334Z,5164.00
2023-10-01T07:35:59.312Z,5160.00
2023-10-01T07:36:59.296Z,5056.00
2023-10-01T07:37:59.248Z,5540.00
2023-10-01T07:38:59.452Z,5628.00
2023-10-01T07:39:59.234Z,5588.00
2023-10-01T07:40:59.554Z,5268.00
2023-10-01T07:41:59.237Z,5416.00
2023-10-01T07:42:59.203Z,5988.00
2023-10-01T07:43:59.185Z,6024.00
2023-10-01T07:44:59.960Z,5976.00
2023-10-01T07:45:59.303Z,5736.00
2023-10-01T07:46:59.215Z,6000.00
2023-10-01T07:47:59.197Z,6584.00
2023-10-01T07:48:59.414Z,6196.00
2023-10-01T07:49:59.141Z,6012.00
2023-10-01T07:50:59.101Z,5744.00
2023-10-01T07:51:59.113Z,6120.00
2023-10-01T07:52:59.083Z,6416.00
2023-10-01T07:53:59.105Z,6708.00
2023-10-01T07:54:59.089Z,6780.00
2023-10-01T07:55:59.050Z,7024.00
2023-10-01T07:56:59.039Z,6916.00
2023-10-01T07:57:59.062Z,7160.00
2023-10-01T07:58:59.449Z,7280.00
2023-10-01T07:59:59.027Z,7412.00
2023-10-01T08:00:59.079Z,7248.00
2023-10-01T08:01:59.146Z,7176.00
2023-10-01T08:02:59.025Z,6984.00
2023-10-01T08:03:59.121Z,6932.00
2023-10-01T08:04:59.268Z,7320.00
2023-10-01T08:05:58.939Z,7552.00
2023-10-01T08:06:59.028Z,7700.00
2023-10-01T08:07:58.934Z,7624.00
2023-10-01T08:08:59.526Z,7596.00
2023-10-01T08:09:59.031Z,7452.00
2023-10-01T08:10:58.889Z,7384.00
2023-10-01T08:11:58.887Z,7516.00
2023-10-01T08:12:58.915Z,8136.00
2023-10-01T08:13:58.879Z,8560.00
2023-10-01T08:14:58.834Z,7928.00
2023-10-01T08:15:59.322Z,7404.00
2023-10-01T08:16:59.058Z,7220.00
2023-10-01T08:17:58.865Z,7644.00
2023-10-01T08:18:59.367Z,8020.00
2023-10-01T08:19:58.788Z,8412.00
2023-10-01T08:20:58.766Z,8688.00
2023-10-01T08:21:58.759Z,8592.00
2023-10-01T08:22:58.749Z,8576.00
2023-10-01T08:23:58.757Z,8664.00
2023-10-01T08:24:58.724Z,8748.00
2023-10-01T08:25:58.716Z,8908.00
2023-10-01T08:26:58.703Z,9016.00
2023-10-01T08:27:58.720Z,9264.00
2023-10-01T08:28:59.429Z,9084.00
2023-10-01T08:29:58.676Z,8860.00
2023-10-01T08:30:58.721Z,9044.00
2023-10-01T08:31:58.684Z,9240.00
2023-10-01T08:32:58.662Z,9316.00
2023-10-01T08:33:58.646Z,9516.00
2023-10-01T08:34:58.612Z,9508.00
2023-10-01T08:35:58.614Z,9984.00
2023-10-01T08:36:58.639Z,9816.00
2023-10-01T08:37:58.581Z,9520.00
2023-10-01T08:38:58.755Z,9852.00
2023-10-01T08:39:58.565Z,10076.00
2023-10-01T08:40:58.580Z,9904.00
2023-10-01T08:41:58.529Z,9832.00
2023-10-01T08:42:58.548Z,10388.00
2023-10-01T08:43:58.583Z,10256.00
2023-10-01T08:44:58.493Z,10344.00
2023-10-01T08:45:58.497Z,10144.00
2023-10-01T08:46:58.570Z,10200.00
2023-10-01T08:47:58.494Z,10212.00
2023-10-01T08:48:58.668Z,10320.00
2023-10-01T08:49:58.452Z,10376.00
2023-10-01T08:50:58.429Z,10320.00
2023-10-01T08:51:58.425Z,9112.00
2023-10-01T08:52:58.435Z,7148.00
2023-10-01T08:53:58.397Z,6380.00
2023-10-01T08:54:58.411Z,6032.00
2023-10-01T08:55:58.394Z,6796.00
2023-10-01T08:56:58.364Z,7116.00
2023-10-01T08:57:58.356Z,7928.00
2023-10-01T08:58:58.512Z,8964.00
2023-10-01T08:59:58.332Z,9128.00
2023-10-01T09:00:58.513Z,9260.00
2023-10-01T09:01:58.356Z,9072.00
2023-10-01T09:02:58.357Z,8608.00
2023-10-01T09:03:58.317Z,8244.00
2023-10-01T09:04:58.276Z,8396.00
2023-10-01T09:05:58.265Z,8300.00
2023-10-01T09:06:58.253Z,8252.00
2023-10-01T09:07:58.247Z,8732.00
2023-10-01T09:08:58.412Z,9240.00
2023-10-01T09:09:58.248Z,9816.00
2023-10-01T09:10:58.326Z,10384.00
2023-10-01T09:11:58.203Z,10884.00
2023-10-01T09:12:58.184Z,11460.00
2023-10-01T09:13:58.182Z,11728.00
2023-10-01T09:14:58.212Z,11760.00
2023-10-01T09:15:58.191Z,10932.00
2023-10-01T09:16:58.228Z,11568.00
2023-10-01T09:17:58.602Z,12268.00
2023-10-01T09:18:58.442Z,12664.00
2023-10-01T09:19:58.122Z,12600.00
2023-10-01T09:20:58.128Z,13524.00
2023-10-01T09:21:58.092Z,13788.00
2023-10-01T09:22:58.075Z,12164.00
2023-10-01T09:23:58.229Z,8920.00
2023-10-01T09:24:58.091Z,6880.00
2023-10-01T09:25:58.054Z,7204.00
2023-10-01T09:26:58.040Z,7364.00
2023-10-01T09:27:58.024Z,7676.00
2023-10-01T09:28:58.225Z,7940.00
2023-10-01T09:29:58.007Z,8152.00
2023-10-01T09:30:58.011Z,7900.00
2023-10-01T09:31:58.477Z,7832.00
2023-10-01T09:32:58.526Z,8356.00
2023-10-01T09:33:57.963Z,7852.00
2023-10-01T09:34:57.951Z,8064.00
2023-10-01T09:35:57.964Z,7764.00
2023-10-01T09:36:57.928Z,7960.00
2023-10-01T09:37:57.954Z,7888.00
2023-10-01T09:38:58.066Z,8548.00
2023-10-01T09:39:57.895Z,8684.00
2023-10-01T09:40:57.889Z,9736.00
2023-10-01T09:41:57.882Z,10124.00
2023-10-01T09:42:57.859Z,10384.00
2023-10-01T09:43:57.875Z,10412.00
2023-10-01T09:44:57.834Z,10728.00
2023-10-01T09:45:57.880Z,9936.00
2023-10-01T09:46:57.902Z,8824.00
2023-10-01T09:47:57.953Z,7484.00
2023-10-01T09:48:58.308Z,7960.00
2023-10-01T09:49:57.793Z,8980.00
2023-10-01T09:50:57.783Z,8568.00
2023-10-01T09:51:57.777Z,8716.00
2023-10-01T09:52:57.875Z,8976.00
2023-10-01T09:53:57.740Z,10056.00
2023-10-01T09:54:57.723Z,10388.00
2023-10-01T09:55:57.729Z,10816.00
2023-10-01T09:56:57.705Z,11100.00
2023-10-01T09:57:57.692Z,11456.00
2023-10-01T09:58:57.980Z,11728.00
2023-10-01T09:59:57.687Z,11440.00
2023-10-01T10:00:57.663Z,11732.00
2023-10-01T10:01:57.734Z,11864.00
2023-10-01T10:02:57.689Z,13412.00
2023-10-01T10:03:57.625Z,19616.00
2023-10-01T10:04:57.674Z,24992.00
2023-10-01T10:05:57.628Z,25184.00
2023-10-01T10:06:57.594Z,26752.00
2023-10-01T10:07:57.610Z,21984.00
2023-10-01T10:08:57.687Z,19648.00
2023-10-01T10:09:57.578Z,21792.00
2023-10-01T10:10:57.547Z,24864.00
2023-10-01T10:11:57.582Z,27744.00
2023-10-01T10:13:01.522Z,28256.00
2023-10-01T10:14:01.101Z,28672.00
2023-10-01T10:14:58.545Z,27968.00
2023-10-01T10:15:57.540Z,32512.00
2023-10-01T10:16:57.640Z,32032.00
2023-10-01T10:17:58.466Z,29344.00
2023-10-01T10:18:58.539Z,32928.00
2023-10-01T10:19:57.451Z,32384.00
2023-10-01T10:20:57.496Z,31104.00
2023-10-01T10:21:58.277Z,31264.00
2023-10-01T10:22:57.423Z,32256.00
2023-10-01T10:23:57.403Z,34176.00
2023-10-01T10:24:57.985Z,34848.00
2023-10-01T10:25:57.898Z,35456.00
2023-10-01T10:26:57.536Z,36288.00
2023-10-01T10:27:57.902Z,36192.00
2023-10-01T10:28:58.923Z,32608.00
2023-10-01T10:29:57.699Z,32096.00
2023-10-01T10:30:57.333Z,35872.00
2023-10-01T10:31:57.403Z,28000.00
2023-10-01T10:32:57.372Z,29600.00
2023-10-01T10:33:58.939Z,30752.00
2023-10-01T10:34:57.288Z,31616.00
2023-10-01T10:35:57.292Z,33600.00
2023-10-01T10:36:57.352Z,33440.00
2023-10-01T10:37:57.305Z,34112.00
2023-10-01T10:38:57.331Z,35552.00
2023-10-01T10:39:58.930Z,36256.00
2023-10-01T10:40:57.225Z,36384.00
2023-10-01T10:41:57.242Z,35808.00
2023-10-01T10:42:57.243Z,41792.00
2023-10-01T10:43:57.196Z,28128.00
2023-10-01T10:45:03.003Z,40064.00
2023-10-01T10:45:57.174Z,30592.00
2023-10-01T10:46:57.208Z,23232.00
2023-10-01T10:47:58.029Z,23840.00
2023-10-01T10:48:57.136Z,25024.00
2023-10-01T10:49:57.125Z,28064.00
2023-10-01T10:51:12.319Z,34304.00
2023-10-01T10:51:57.103Z,37248.00
2023-10-01T10:52:57.090Z,41888.00
2023-10-01T10:53:57.103Z,41536.00
2023-10-01T10:54:57.064Z,39328.00
2023-10-01T10:55:57.069Z,37152.00
2023-10-01T10:56:57.051Z,38336.00
2023-10-01T10:57:57.044Z,34944.00
2023-10-01T10:58:57.058Z,39264.00
2023-10-01T10:59:57.223Z,39808.00
2023-10-01T11:00:58.081Z,37952.00
2023-10-01T11:01:57.067Z,34816.00
2023-10-01T11:02:57.046Z,34048.00
2023-10-01T11:03:56.992Z,36128.00
2023-10-01T11:04:57.015Z,34368.00
2023-10-01T11:05:56.956Z,33568.00
2023-10-01T11:06:56.940Z,33664.00
2023-10-01T11:07:56.933Z,33344.00
2023-10-01T11:08:56.914Z,33088.00
2023-10-01T11:09:56.909Z,33088.00
2023-10-01T11:10:56.911Z,30624.00
2023-10-01T11:11:57.503Z,30144.00
2023-10-01T11:12:56.871Z,31616.00
2023-10-01T11:14:03.455Z,31872.00
2023-10-01T11:14:56.854Z,33920.00
2023-10-01T11:15:56.914Z,32064.00
2023-10-01T11:16:56.905Z,36096.00
2023-10-01T11:17:56.869Z,33024.00
2023-10-01T11:18:56.822Z,28768.00
2023-10-01T11:19:56.854Z,33728.00
2023-10-01T11:20:56.795Z,32960.00
2023-10-01T11:21:56.911Z,33408.00
2023-10-01T11:22:56.968Z,34048.00
2023-10-01T11:23:56.762Z,31904.00
2023-10-01T11:24:56.744Z,36832.00
2023-10-01T11:25:56.757Z,31392.00
2023-10-01T11:26:56.725Z,31968.00
2023-10-01T11:27:56.714Z,34016.00
2023-10-01T11:28:56.713Z,39392.00
2023-10-01T11:29:56.693Z,41056.00
2023-10-01T11:30:56.697Z,38528.00
2023-10-01T11:31:56.862Z,37664.00
2023-10-01T11:32:56.847Z,28480.00
2023-10-01T11:33:56.702Z,42720.00
2023-10-01T11:34:56.833Z,42592.00
2023-10-01T11:35:56.676Z,41248.00
2023-10-01T11:36:56.618Z,40320.00
2023-10-01T11:37:56.608Z,38976.00
2023-10-01T11:38:56.599Z,37792.00
2023-10-01T11:39:56.585Z,37920.00
2023-10-01T11:40:56.612Z,40032.00
2023-10-01T11:41:56.568Z,43296.00
2023-10-01T11:42:56.550Z,41248.00
2023-10-01T11:43:56.540Z,42688.00
2023-10-01T11:44:56.528Z,42400.00
2023-10-01T11:45:56.532Z,43680.00
2023-10-01T11:46:56.548Z,45504.00
2023-10-01T11:47:56.511Z,43360.00
2023-10-01T11:48:56.522Z,41696.00
2023-10-01T11:49:56.479Z,40448.00
2023-10-01T11:50:56.473Z,27456.00
2023-10-01T11:51:56.496Z,26496.00
2023-10-01T11:52:56.445Z,33056.00
2023-10-01T11:53:56.440Z,39648.00
2023-10-01T11:54:56.460Z,39424.00
2023-10-01T11:55:56.412Z,42336.00
2023-10-01T11:56:56.409Z,40864.00
2023-10-01T11:57:56.414Z,40256.00
2023-10-01T11:58:56.397Z,38400.00
2023-10-01T11:59:56.440Z,41568.00
2023-10-01T12:00:56.398Z,39968.00
2023-10-01T12:01:56.410Z,39264.00
2023-10-01T12:02:56.382Z,28608.00
2023-10-01T12:03:56.360Z,26336.00
2023-10-01T12:04:56.358Z,24992.00
2023-10-01T12:05:56.328Z,38752.00
2023-10-01T12:06:56.330Z,41184.00
2023-10-01T12:07:56.311Z,38752.00
2023-10-01T12:08:56.283Z,36064.00
2023-10-01T12:09:56.267Z,29760.00
2023-10-01T12:10:56.279Z,26240.00
2023-10-01T12:11:56.272Z,25376.00
2023-10-01T12:12:56.253Z,27840.00
2023-10-01T12:13:56.220Z,25120.00
2023-10-01T12:14:56.354Z,30048.00
2023-10-01T12:15:56.236Z,21824.00
2023-10-01T12:16:56.274Z,17504.00
2023-10-01T12:17:56.232Z,19680.00
2023-10-01T12:18:56.205Z,14776.00
2023-10-01T12:19:56.260Z,12324.00
2023-10-01T12:20:56.188Z,12720.00
2023-10-01T12:21:56.177Z,12504.00
2023-10-01T12:22:56.163Z,15172.00
2023-10-01T12:23:56.114Z,14668.00
2023-10-01T12:24:56.116Z,24352.00
2023-10-01T12:25:56.121Z,32576.00
2023-10-01T12:26:56.077Z,32704.00
2023-10-01T12:27:56.072Z,27904.00
2023-10-01T12:28:56.059Z,29952.00
2023-10-01T12:29:56.051Z,34720.00
2023-10-01T12:30:56.056Z,35520.00
2023-10-01T12:31:56.112Z,35840.00
2023-10-01T12:32:56.119Z,36768.00
2023-10-01T12:33:56.005Z,37472.00